sensor_id;sensor_type;location;lat;lon;timestamp;P1;durP1;ratioP1;P2;durP2;ratioP2
67191;SDS011;54120;53.504;49.426;2023-04-03T00:01:40;6.72;;;2.80;;
67191;SDS011;54120;53.504;49.426;2023-04-03T00:04:07;6.10;;;3.13;;
67191;SDS011;54120;53.504;49.426;2023-04-03T00:06:33;6.55;;;3.38;;
67191;SDS011;54120;53.504;49.426;2023-04-03T00:09:00;3.80;;;3.00;;
67191;SDS011;54120;53.504;49.426;2023-04-03T00:11:26;4.60;;;2.95;;
67191;SDS011;54120;53.504;49.426;2023-04-03T00:13:52;5.05;;;2.72;;
67191;SDS011;54120;53.504;49.426;2023-04-03T00:16:18;5.80;;;2.88;;
67191;SDS011;54120;53.504;49.426;2023-04-03T00:18:44;6.20;;;2.67;;
67191;SDS011;54120;53.504;49.426;2023-04-03T00:21:12;6.57;;;2.85;;
67191;SDS011;54120;53.504;49.426;2023-04-03T00:23:38;6.43;;;3.20;;
67191;SDS011;54120;53.504;49.426;2023-04-03T00:26:05;7.65;;;3.33;;
67191;SDS011;54120;53.504;49.426;2023-04-03T00:28:31;10.77;;;3.83;;
67191;SDS011;54120;53.504;49.426;2023-04-03T00:30:57;7.07;;;3.47;;
67191;SDS011;54120;53.504;49.426;2023-04-03T00:33:24;8.50;;;3.08;;
67191;SDS011;54120;53.504;49.426;2023-04-03T00:35:50;6.32;;;3.03;;
67191;SDS011;54120;53.504;49.426;2023-04-03T00:38:17;7.00;;;2.92;;
67191;SDS011;54120;53.504;49.426;2023-04-03T00:40:44;9.23;;;2.95;;
67191;SDS011;54120;53.504;49.426;2023-04-03T00:43:17;6.03;;;2.83;;
67191;SDS011;54120;53.504;49.426;2023-04-03T00:45:48;9.05;;;3.08;;
67191;SDS011;54120;53.504;49.426;2023-04-03T00:48:23;6.18;;;2.28;;
67191;SDS011;54120;53.504;49.426;2023-04-03T00:50:56;6.07;;;2.90;;
67191;SDS011;54120;53.504;49.426;2023-04-03T00:53:26;3.38;;;2.25;;
67191;SDS011;54120;53.504;49.426;2023-04-03T00:55:57;4.78;;;2.38;;
67191;SDS011;54120;53.504;49.426;2023-04-03T00:58:35;3.80;;;2.58;;
67191;SDS011;54120;53.504;49.426;2023-04-03T01:01:08;6.32;;;2.75;;
67191;SDS011;54120;53.504;49.426;2023-04-03T01:03:38;6.45;;;2.75;;
67191;SDS011;54120;53.504;49.426;2023-04-03T01:06:05;8.63;;;2.63;;
67191;SDS011;54120;53.504;49.426;2023-04-03T01:08:31;4.88;;;2.55;;
67191;SDS011;54120;53.504;49.426;2023-04-03T01:10:58;6.15;;;2.70;;
67191;SDS011;54120;53.504;49.426;2023-04-03T01:13:26;5.13;;;2.33;;
67191;SDS011;54120;53.504;49.426;2023-04-03T01:15:54;7.65;;;2.75;;
67191;SDS011;54120;53.504;49.426;2023-04-03T01:18:24;8.35;;;2.83;;
67191;SDS011;54120;53.504;49.426;2023-04-03T01:23:30;8.68;;;2.90;;
67191;SDS011;54120;53.504;49.426;2023-04-03T01:26:05;8.70;;;3.08;;
67191;SDS011;54120;53.504;49.426;2023-04-03T01:28:33;10.75;;;2.88;;
67191;SDS011;54120;53.504;49.426;2023-04-03T01:31:08;6.00;;;2.70;;
67191;SDS011;54120;53.504;49.426;2023-04-03T01:33:48;3.90;;;2.60;;
67191;SDS011;54120;53.504;49.426;2023-04-03T01:36:26;6.85;;;2.55;;
67191;SDS011;54120;53.504;49.426;2023-04-03T01:38:55;4.35;;;2.78;;
67191;SDS011;54120;53.504;49.426;2023-04-03T01:41:22;6.15;;;2.70;;
67191;SDS011;54120;53.504;49.426;2023-04-03T01:43:49;10.07;;;3.00;;
67191;SDS011;54120;53.504;49.426;2023-04-03T01:46:16;11.80;;;2.80;;
67191;SDS011;54120;53.504;49.426;2023-04-03T01:48:42;6.10;;;2.53;;
67191;SDS011;54120;53.504;49.426;2023-04-03T01:51:09;4.53;;;2.85;;
67191;SDS011;54120;53.504;49.426;2023-04-03T01:53:35;6.20;;;2.78;;
67191;SDS011;54120;53.504;49.426;2023-04-03T01:56:01;13.75;;;3.10;;
67191;SDS011;54120;53.504;49.426;2023-04-03T01:58:28;7.22;;;2.47;;
67191;SDS011;54120;53.504;49.426;2023-04-03T02:00:54;6.82;;;3.00;;
67191;SDS011;54120;53.504;49.426;2023-04-03T02:03:21;7.50;;;2.92;;
67191;SDS011;54120;53.504;49.426;2023-04-03T02:05:47;5.57;;;2.80;;
67191;SDS011;54120;53.504;49.426;2023-04-03T02:08:13;8.60;;;2.80;;
67191;SDS011;54120;53.504;49.426;2023-04-03T02:10:39;5.82;;;2.67;;
67191;SDS011;54120;53.504;49.426;2023-04-03T02:13:05;3.38;;;2.35;;
67191;SDS011;54120;53.504;49.426;2023-04-03T02:15:31;5.32;;;2.70;;
67191;SDS011;54120;53.504;49.426;2023-04-03T02:17:57;7.47;;;3.00;;
67191;SDS011;54120;53.504;49.426;2023-04-03T02:20:23;7.00;;;2.60;;
67191;SDS011;54120;53.504;49.426;2023-04-03T02:22:49;7.10;;;2.88;;
67191;SDS011;54120;53.504;49.426;2023-04-03T02:25:15;7.13;;;2.70;;
67191;SDS011;54120;53.504;49.426;2023-04-03T02:27:43;5.78;;;2.38;;
67191;SDS011;54120;53.504;49.426;2023-04-03T02:30:09;7.75;;;2.50;;
67191;SDS011;54120;53.504;49.426;2023-04-03T02:32:36;12.40;;;2.80;;
67191;SDS011;54120;53.504;49.426;2023-04-03T02:35:02;6.47;;;2.75;;
67191;SDS011;54120;53.504;49.426;2023-04-03T02:37:28;7.13;;;2.30;;
67191;SDS011;54120;53.504;49.426;2023-04-03T02:39:56;5.22;;;2.17;;
67191;SDS011;54120;53.504;49.426;2023-04-03T02:42:22;12.68;;;2.88;;
67191;SDS011;54120;53.504;49.426;2023-04-03T02:44:48;10.35;;;2.65;;
67191;SDS011;54120;53.504;49.426;2023-04-03T02:47:14;7.32;;;2.28;;
67191;SDS011;54120;53.504;49.426;2023-04-03T02:49:40;9.30;;;2.80;;
67191;SDS011;54120;53.504;49.426;2023-04-03T02:52:07;11.20;;;2.65;;
67191;SDS011;54120;53.504;49.426;2023-04-03T02:54:33;5.07;;;2.25;;
67191;SDS011;54120;53.504;49.426;2023-04-03T02:56:59;12.02;;;2.50;;
67191;SDS011;54120;53.504;49.426;2023-04-03T02:59:25;5.50;;;2.33;;
67191;SDS011;54120;53.504;49.426;2023-04-03T03:01:51;5.15;;;2.35;;
67191;SDS011;54120;53.504;49.426;2023-04-03T03:04:18;18.13;;;2.45;;
67191;SDS011;54120;53.504;49.426;2023-04-03T03:06:44;10.35;;;2.75;;
67191;SDS011;54120;53.504;49.426;2023-04-03T03:09:10;14.48;;;2.72;;
67191;SDS011;54120;53.504;49.426;2023-04-03T03:11:36;10.27;;;3.10;;
67191;SDS011;54120;53.504;49.426;2023-04-03T03:14:02;8.40;;;2.25;;
67191;SDS011;54120;53.504;49.426;2023-04-03T03:16:29;6.75;;;2.55;;
67191;SDS011;54120;53.504;49.426;2023-04-03T03:18:55;11.48;;;2.88;;
67191;SDS011;54120;53.504;49.426;2023-04-03T03:21:21;6.72;;;2.63;;
67191;SDS011;54120;53.504;49.426;2023-04-03T03:23:47;3.83;;;2.20;;
67191;SDS011;54120;53.504;49.426;2023-04-03T03:26:13;10.63;;;2.38;;
67191;SDS011;54120;53.504;49.426;2023-04-03T03:28:40;6.90;;;2.45;;
67191;SDS011;54120;53.504;49.426;2023-04-03T03:31:06;8.57;;;3.03;;
67191;SDS011;54120;53.504;49.426;2023-04-03T03:33:33;6.82;;;2.75;;
67191;SDS011;54120;53.504;49.426;2023-04-03T03:35:59;7.47;;;2.50;;
67191;SDS011;54120;53.504;49.426;2023-04-03T03:38:25;10.48;;;2.80;;
67191;SDS011;54120;53.504;49.426;2023-04-03T03:40:51;10.32;;;2.55;;
67191;SDS011;54120;53.504;49.426;2023-04-03T03:43:17;24.77;;;4.25;;
67191;SDS011;54120;53.504;49.426;2023-04-03T03:45:46;15.57;;;2.60;;
67191;SDS011;54120;53.504;49.426;2023-04-03T03:48:16;25.73;;;3.47;;
67191;SDS011;54120;53.504;49.426;2023-04-03T03:50:42;13.00;;;2.53;;
67191;SDS011;54120;53.504;49.426;2023-04-03T03:53:09;5.45;;;2.13;;
67191;SDS011;54120;53.504;49.426;2023-04-03T03:55:35;7.30;;;2.30;;
67191;SDS011;54120;53.504;49.426;2023-04-03T03:58:01;10.90;;;2.60;;
67191;SDS011;54120;53.504;49.426;2023-04-03T04:00:28;7.32;;;2.00;;
67191;SDS011;54120;53.504;49.426;2023-04-03T04:02:55;7.28;;;2.05;;
67191;SDS011;54120;53.504;49.426;2023-04-03T04:05:22;14.90;;;2.33;;
67191;SDS011;54120;53.504;49.426;2023-04-03T04:07:48;9.88;;;2.25;;
67191;SDS011;54120;53.504;49.426;2023-04-03T04:10:15;9.15;;;2.38;;
67191;SDS011;54120;53.504;49.426;2023-04-03T04:12:41;4.35;;;1.77;;
67191;SDS011;54120;53.504;49.426;2023-04-03T04:15:07;7.72;;;2.00;;
67191;SDS011;54120;53.504;49.426;2023-04-03T04:17:34;9.52;;;2.03;;
67191;SDS011;54120;53.504;49.426;2023-04-03T04:20:01;11.52;;;2.10;;
67191;SDS011;54120;53.504;49.426;2023-04-03T04:22:28;11.25;;;2.53;;
67191;SDS011;54120;53.504;49.426;2023-04-03T04:24:54;12.52;;;2.13;;
67191;SDS011;54120;53.504;49.426;2023-04-03T04:27:20;14.85;;;2.83;;
67191;SDS011;54120;53.504;49.426;2023-04-03T04:29:46;6.78;;;2.08;;
67191;SDS011;54120;53.504;49.426;2023-04-03T04:32:12;4.28;;;1.85;;
67191;SDS011;54120;53.504;49.426;2023-04-03T04:34:38;7.90;;;2.03;;
67191;SDS011;54120;53.504;49.426;2023-04-03T04:37:04;5.97;;;1.80;;
67191;SDS011;54120;53.504;49.426;2023-04-03T04:39:30;8.90;;;2.03;;
67191;SDS011;54120;53.504;49.426;2023-04-03T04:41:56;4.68;;;2.20;;
67191;SDS011;54120;53.504;49.426;2023-04-03T04:44:23;16.40;;;2.25;;
67191;SDS011;54120;53.504;49.426;2023-04-03T04:46:49;6.78;;;2.08;;
67191;SDS011;54120;53.504;49.426;2023-04-03T04:49:15;4.60;;;2.00;;
67191;SDS011;54120;53.504;49.426;2023-04-03T04:51:41;13.93;;;1.80;;
67191;SDS011;54120;53.504;49.426;2023-04-03T04:54:07;6.63;;;2.17;;
67191;SDS011;54120;53.504;49.426;2023-04-03T04:56:33;6.80;;;1.60;;
67191;SDS011;54120;53.504;49.426;2023-04-03T04:58:59;8.77;;;2.05;;
67191;SDS011;54120;53.504;49.426;2023-04-03T05:01:26;10.98;;;2.47;;
67191;SDS011;54120;53.504;49.426;2023-04-03T05:03:52;4.80;;;1.70;;
67191;SDS011;54120;53.504;49.426;2023-04-03T05:06:19;3.80;;;1.60;;
67191;SDS011;54120;53.504;49.426;2023-04-03T05:08:45;10.75;;;2.10;;
67191;SDS011;54120;53.504;49.426;2023-04-03T05:11:11;8.93;;;2.05;;
67191;SDS011;54120;53.504;49.426;2023-04-03T05:13:36;5.82;;;1.70;;
67191;SDS011;54120;53.504;49.426;2023-04-03T05:16:02;19.65;;;2.45;;
67191;SDS011;54120;53.504;49.426;2023-04-03T05:18:29;15.00;;;2.28;;
67191;SDS011;54120;53.504;49.426;2023-04-03T05:20:55;17.45;;;4.50;;
67191;SDS011;54120;53.504;49.426;2023-04-03T05:23:21;12.35;;;2.10;;
67191;SDS011;54120;53.504;49.426;2023-04-03T05:25:47;15.00;;;2.58;;
67191;SDS011;54120;53.504;49.426;2023-04-03T05:28:14;8.02;;;1.88;;
67191;SDS011;54120;53.504;49.426;2023-04-03T05:30:40;3.85;;;1.70;;
67191;SDS011;54120;53.504;49.426;2023-04-03T05:33:06;11.93;;;2.00;;
67191;SDS011;54120;53.504;49.426;2023-04-03T05:35:32;12.57;;;2.30;;
67191;SDS011;54120;53.504;49.426;2023-04-03T05:37:58;21.98;;;2.20;;
67191;SDS011;54120;53.504;49.426;2023-04-03T05:40:24;14.98;;;2.50;;
67191;SDS011;54120;53.504;49.426;2023-04-03T05:42:50;6.30;;;1.90;;
67191;SDS011;54120;53.504;49.426;2023-04-03T05:45:18;5.63;;;1.88;;
67191;SDS011;54120;53.504;49.426;2023-04-03T05:47:44;10.10;;;2.03;;
67191;SDS011;54120;53.504;49.426;2023-04-03T05:50:11;7.15;;;2.33;;
67191;SDS011;54120;53.504;49.426;2023-04-03T05:52:40;7.40;;;2.20;;
67191;SDS011;54120;53.504;49.426;2023-04-03T05:55:10;11.57;;;2.20;;
67191;SDS011;54120;53.504;49.426;2023-04-03T05:57:36;7.95;;;2.00;;
67191;SDS011;54120;53.504;49.426;2023-04-03T06:00:04;9.23;;;2.20;;
67191;SDS011;54120;53.504;49.426;2023-04-03T06:02:31;12.18;;;2.35;;
67191;SDS011;54120;53.504;49.426;2023-04-03T06:04:58;9.40;;;1.98;;
67191;SDS011;54120;53.504;49.426;2023-04-03T06:07:24;7.10;;;2.15;;
67191;SDS011;54120;53.504;49.426;2023-04-03T06:09:54;10.65;;;1.98;;
67191;SDS011;54120;53.504;49.426;2023-04-03T06:12:22;10.48;;;2.20;;
67191;SDS011;54120;53.504;49.426;2023-04-03T06:14:48;10.48;;;2.13;;
67191;SDS011;54120;53.504;49.426;2023-04-03T06:17:15;9.30;;;2.72;;
67191;SDS011;54120;53.504;49.426;2023-04-03T06:19:43;9.48;;;2.28;;
67191;SDS011;54120;53.504;49.426;2023-04-03T06:22:10;8.07;;;2.30;;
67191;SDS011;54120;53.504;49.426;2023-04-03T06:24:37;18.63;;;2.75;;
67191;SDS011;54120;53.504;49.426;2023-04-03T06:27:04;6.60;;;2.22;;
67191;SDS011;54120;53.504;49.426;2023-04-03T06:29:30;5.35;;;1.90;;
67191;SDS011;54120;53.504;49.426;2023-04-03T06:31:57;13.60;;;2.65;;
67191;SDS011;54120;53.504;49.426;2023-04-03T06:34:23;13.40;;;2.15;;
67191;SDS011;54120;53.504;49.426;2023-04-03T06:36:49;12.13;;;2.22;;
67191;SDS011;54120;53.504;49.426;2023-04-03T06:39:17;10.70;;;1.80;;
67191;SDS011;54120;53.504;49.426;2023-04-03T06:41:48;9.68;;;2.78;;
67191;SDS011;54120;53.504;49.426;2023-04-03T06:44:15;10.18;;;2.22;;
67191;SDS011;54120;53.504;49.426;2023-04-03T06:46:42;9.18;;;2.03;;
67191;SDS011;54120;53.504;49.426;2023-04-03T06:49:09;16.95;;;2.80;;
67191;SDS011;54120;53.504;49.426;2023-04-03T06:51:36;14.40;;;2.28;;
67191;SDS011;54120;53.504;49.426;2023-04-03T06:54:03;12.57;;;2.78;;
67191;SDS011;54120;53.504;49.426;2023-04-03T06:56:31;19.80;;;3.03;;
67191;SDS011;54120;53.504;49.426;2023-04-03T06:58:57;15.40;;;2.58;;
67191;SDS011;54120;53.504;49.426;2023-04-03T07:01:24;15.00;;;2.30;;
67191;SDS011;54120;53.504;49.426;2023-04-03T07:03:54;17.48;;;2.83;;
67191;SDS011;54120;53.504;49.426;2023-04-03T07:06:20;12.15;;;2.40;;
67191;SDS011;54120;53.504;49.426;2023-04-03T07:08:47;11.00;;;2.55;;
67191;SDS011;54120;53.504;49.426;2023-04-03T07:11:16;13.90;;;2.50;;
67191;SDS011;54120;53.504;49.426;2023-04-03T07:13:42;5.88;;;2.20;;
67191;SDS011;54120;53.504;49.426;2023-04-03T07:16:08;13.15;;;2.58;;
67191;SDS011;54120;53.504;49.426;2023-04-03T07:18:35;18.08;;;2.70;;
67191;SDS011;54120;53.504;49.426;2023-04-03T07:21:01;10.65;;;2.30;;
67191;SDS011;54120;53.504;49.426;2023-04-03T07:23:27;14.07;;;2.20;;
67191;SDS011;54120;53.504;49.426;2023-04-03T07:25:54;16.73;;;2.63;;
67191;SDS011;54120;53.504;49.426;2023-04-03T07:28:21;13.15;;;2.17;;
67191;SDS011;54120;53.504;49.426;2023-04-03T07:30:51;8.27;;;2.22;;
67191;SDS011;54120;53.504;49.426;2023-04-03T07:33:19;16.80;;;2.33;;
67191;SDS011;54120;53.504;49.426;2023-04-03T07:35:49;26.17;;;2.60;;
67191;SDS011;54120;53.504;49.426;2023-04-03T07:38:15;12.18;;;2.17;;
67191;SDS011;54120;53.504;49.426;2023-04-03T07:40:45;7.57;;;2.17;;
67191;SDS011;54120;53.504;49.426;2023-04-03T07:43:12;11.40;;;2.35;;
67191;SDS011;54120;53.504;49.426;2023-04-03T07:45:38;16.17;;;2.63;;
67191;SDS011;54120;53.504;49.426;2023-04-03T07:48:04;23.10;;;2.63;;
67191;SDS011;54120;53.504;49.426;2023-04-03T07:50:30;13.25;;;2.25;;
67191;SDS011;54120;53.504;49.426;2023-04-03T07:52:58;15.07;;;2.10;;
67191;SDS011;54120;53.504;49.426;2023-04-03T07:55:25;12.35;;;1.85;;
67191;SDS011;54120;53.504;49.426;2023-04-03T07:57:51;12.55;;;2.35;;
67191;SDS011;54120;53.504;49.426;2023-04-03T08:00:17;15.25;;;2.60;;
67191;SDS011;54120;53.504;49.426;2023-04-03T08:02:45;17.77;;;2.65;;
67191;SDS011;54120;53.504;49.426;2023-04-03T08:05:16;11.93;;;2.03;;
67191;SDS011;54120;53.504;49.426;2023-04-03T08:07:46;22.42;;;2.45;;
67191;SDS011;54120;53.504;49.426;2023-04-03T08:10:13;23.63;;;3.03;;
67191;SDS011;54120;53.504;49.426;2023-04-03T08:12:40;12.25;;;2.10;;
67191;SDS011;54120;53.504;49.426;2023-04-03T08:15:07;14.88;;;2.50;;
67191;SDS011;54120;53.504;49.426;2023-04-03T08:17:34;16.92;;;2.72;;
67191;SDS011;54120;53.504;49.426;2023-04-03T08:20:00;37.75;;;2.70;;
67191;SDS011;54120;53.504;49.426;2023-04-03T08:22:27;26.10;;;2.67;;
67191;SDS011;54120;53.504;49.426;2023-04-03T08:24:53;17.90;;;2.30;;
67191;SDS011;54120;53.504;49.426;2023-04-03T08:27:19;13.05;;;2.55;;
67191;SDS011;54120;53.504;49.426;2023-04-03T08:29:45;22.98;;;2.50;;
67191;SDS011;54120;53.504;49.426;2023-04-03T08:32:11;20.20;;;2.55;;
67191;SDS011;54120;53.504;49.426;2023-04-03T08:34:37;13.55;;;2.70;;
67191;SDS011;54120;53.504;49.426;2023-04-03T08:37:05;10.32;;;2.75;;
67191;SDS011;54120;53.504;49.426;2023-04-03T08:39:31;12.13;;;2.38;;
67191;SDS011;54120;53.504;49.426;2023-04-03T08:41:58;15.00;;;2.75;;
67191;SDS011;54120;53.504;49.426;2023-04-03T08:49:57;15.38;;;2.42;;
67191;SDS011;54120;53.504;49.426;2023-04-03T08:52:32;13.63;;;2.00;;
67191;SDS011;54120;53.504;49.426;2023-04-03T08:58:00;14.38;;;2.83;;
67191;SDS011;54120;53.504;49.426;2023-04-03T09:00:50;22.45;;;2.58;;
67191;SDS011;54120;53.504;49.426;2023-04-03T09:03:21;6.97;;;2.00;;
67191;SDS011;54120;53.504;49.426;2023-04-03T09:05:55;18.60;;;2.22;;
67191;SDS011;54120;53.504;49.426;2023-04-03T09:08:24;26.38;;;4.10;;
67191;SDS011;54120;53.504;49.426;2023-04-03T09:13:45;13.35;;;2.17;;
67191;SDS011;54120;53.504;49.426;2023-04-03T09:18:53;21.25;;;2.88;;
67191;SDS011;54120;53.504;49.426;2023-04-03T09:21:36;13.00;;;2.70;;
67191;SDS011;54120;53.504;49.426;2023-04-03T09:29:31;16.00;;;4.15;;
67191;SDS011;54120;53.504;49.426;2023-04-03T09:32:18;20.25;;;3.33;;
67191;SDS011;54120;53.504;49.426;2023-04-03T09:35:02;14.35;;;2.00;;
67191;SDS011;54120;53.504;49.426;2023-04-03T09:37:44;17.33;;;2.50;;
67191;SDS011;54120;53.504;49.426;2023-04-03T09:43:24;14.63;;;2.50;;
67191;SDS011;54120;53.504;49.426;2023-04-03T09:45:52;18.52;;;2.60;;
67191;SDS011;54120;53.504;49.426;2023-04-03T09:48:20;15.70;;;2.35;;
67191;SDS011;54120;53.504;49.426;2023-04-03T09:53:32;36.97;;;3.65;;
67191;SDS011;54120;53.504;49.426;2023-04-03T09:56:26;20.85;;;3.08;;
67191;SDS011;54120;53.504;49.426;2023-04-03T10:01:33;29.63;;;3.08;;
67191;SDS011;54120;53.504;49.426;2023-04-03T10:04:19;22.83;;;2.65;;
67191;SDS011;54120;53.504;49.426;2023-04-03T10:06:48;12.40;;;2.53;;
67191;SDS011;54120;53.504;49.426;2023-04-03T10:09:23;22.67;;;2.67;;
67191;SDS011;54120;53.504;49.426;2023-04-03T10:14:31;22.83;;;2.75;;
67191;SDS011;54120;53.504;49.426;2023-04-03T10:17:03;23.60;;;2.78;;
67191;SDS011;54120;53.504;49.426;2023-04-03T10:22:18;31.45;;;3.25;;
67191;SDS011;54120;53.504;49.426;2023-04-03T10:25:26;20.67;;;2.83;;
67191;SDS011;54120;53.504;49.426;2023-04-03T10:28:02;18.33;;;2.50;;
67191;SDS011;54120;53.504;49.426;2023-04-03T10:36:16;27.23;;;3.22;;
67191;SDS011;54120;53.504;49.426;2023-04-03T10:41:49;29.52;;;2.92;;
67191;SDS011;54120;53.504;49.426;2023-04-03T10:47:22;90.88;;;41.13;;
67191;SDS011;54120;53.504;49.426;2023-04-03T10:55:38;20.25;;;2.55;;
67191;SDS011;54120;53.504;49.426;2023-04-03T10:58:25;31.25;;;3.90;;
67191;SDS011;54120;53.504;49.426;2023-04-03T11:00:53;22.60;;;2.95;;
67191;SDS011;54120;53.504;49.426;2023-04-03T11:05:56;18.88;;;3.92;;
67191;SDS011;54120;53.504;49.426;2023-04-03T11:11:03;19.38;;;2.95;;
67191;SDS011;54120;53.504;49.426;2023-04-03T11:13:35;31.65;;;3.22;;
67191;SDS011;54120;53.504;49.426;2023-04-03T11:16:08;15.32;;;2.40;;
67191;SDS011;54120;53.504;49.426;2023-04-03T11:26:08;24.85;;;3.22;;
67191;SDS011;54120;53.504;49.426;2023-04-03T11:28:40;31.25;;;3.22;;
67191;SDS011;54120;53.504;49.426;2023-04-03T11:31:53;11.73;;;3.58;;
67191;SDS011;54120;53.504;49.426;2023-04-03T11:34:06;29.75;;;3.55;;
67191;SDS011;54120;53.504;49.426;2023-04-03T11:41:53;18.77;;;2.70;;
67191;SDS011;54120;53.504;49.426;2023-04-03T11:44:36;20.33;;;3.08;;
67191;SDS011;54120;53.504;49.426;2023-04-03T11:47:04;26.05;;;3.38;;
67191;SDS011;54120;53.504;49.426;2023-04-03T12:13:41;18.10;;;2.75;;
67191;SDS011;54120;53.504;49.426;2023-04-03T12:16:20;25.27;;;2.88;;
67191;SDS011;54120;53.504;49.426;2023-04-03T12:21:15;16.08;;;2.70;;
67191;SDS011;54120;53.504;49.426;2023-04-03T12:24:01;17.08;;;2.70;;
67191;SDS011;54120;53.504;49.426;2023-04-03T12:32:25;23.25;;;3.40;;
67191;SDS011;54120;53.504;49.426;2023-04-03T12:45:48;24.83;;;3.25;;
67191;SDS011;54120;53.504;49.426;2023-04-03T12:48:18;31.80;;;2.80;;
67191;SDS011;54120;53.504;49.426;2023-04-03T12:50:49;22.75;;;2.83;;
67191;SDS011;54120;53.504;49.426;2023-04-03T12:53:18;20.60;;;3.15;;
67191;SDS011;54120;53.504;49.426;2023-04-03T12:55:53;30.65;;;3.65;;
67191;SDS011;54120;53.504;49.426;2023-04-03T12:58:25;24.92;;;2.92;;
67191;SDS011;54120;53.504;49.426;2023-04-03T13:03:44;26.58;;;2.85;;
67191;SDS011;54120;53.504;49.426;2023-04-03T13:08:59;28.60;;;2.85;;
67191;SDS011;54120;53.504;49.426;2023-04-03T13:11:27;15.95;;;2.53;;
67191;SDS011;54120;53.504;49.426;2023-04-03T13:14:12;23.98;;;3.55;;
67191;SDS011;54120;53.504;49.426;2023-04-03T13:16:41;24.08;;;3.42;;
67191;SDS011;54120;53.504;49.426;2023-04-03T13:19:15;18.35;;;2.63;;
67191;SDS011;54120;53.504;49.426;2023-04-03T13:24:10;23.40;;;3.22;;
67191;SDS011;54120;53.504;49.426;2023-04-03T13:26:37;26.90;;;3.28;;
67191;SDS011;54120;53.504;49.426;2023-04-03T13:29:07;20.80;;;2.63;;
67191;SDS011;54120;53.504;49.426;2023-04-03T13:31:53;22.98;;;2.95;;
67191;SDS011;54120;53.504;49.426;2023-04-03T13:34:22;16.38;;;2.35;;
67191;SDS011;54120;53.504;49.426;2023-04-03T13:39:41;24.40;;;2.83;;
67191;SDS011;54120;53.504;49.426;2023-04-03T13:42:23;23.65;;;2.42;;
67191;SDS011;54120;53.504;49.426;2023-04-03T13:47:46;22.02;;;3.22;;
67191;SDS011;54120;53.504;49.426;2023-04-03T13:52:55;21.35;;;2.60;;
67191;SDS011;54120;53.504;49.426;2023-04-03T13:57:58;20.73;;;2.83;;
67191;SDS011;54120;53.504;49.426;2023-04-03T14:06:06;16.40;;;2.65;;
67191;SDS011;54120;53.504;49.426;2023-04-03T14:08:35;22.27;;;2.55;;
67191;SDS011;54120;53.504;49.426;2023-04-03T14:11:01;25.10;;;3.05;;
67191;SDS011;54120;53.504;49.426;2023-04-03T14:13:29;19.17;;;2.42;;
67191;SDS011;54120;53.504;49.426;2023-04-03T14:15:56;26.42;;;3.40;;
67191;SDS011;54120;53.504;49.426;2023-04-03T14:18:22;26.98;;;3.05;;
67191;SDS011;54120;53.504;49.426;2023-04-03T14:20:48;25.55;;;2.70;;
67191;SDS011;54120;53.504;49.426;2023-04-03T14:23:15;29.65;;;2.83;;
67191;SDS011;54120;53.504;49.426;2023-04-03T14:25:41;13.80;;;2.50;;
67191;SDS011;54120;53.504;49.426;2023-04-03T14:28:16;16.60;;;3.45;;
67191;SDS011;54120;53.504;49.426;2023-04-03T14:30:44;22.60;;;2.90;;
67191;SDS011;54120;53.504;49.426;2023-04-03T14:33:14;19.60;;;4.25;;
67191;SDS011;54120;53.504;49.426;2023-04-03T14:35:42;22.98;;;3.17;;
67191;SDS011;54120;53.504;49.426;2023-04-03T14:38:20;23.45;;;2.60;;
67191;SDS011;54120;53.504;49.426;2023-04-03T14:40:51;28.40;;;3.40;;
67191;SDS011;54120;53.504;49.426;2023-04-03T14:43:18;16.40;;;2.83;;
67191;SDS011;54120;53.504;49.426;2023-04-03T14:45:46;33.00;;;3.50;;
67191;SDS011;54120;53.504;49.426;2023-04-03T14:48:23;26.10;;;3.15;;
67191;SDS011;54120;53.504;49.426;2023-04-03T14:50:52;19.13;;;2.72;;
67191;SDS011;54120;53.504;49.426;2023-04-03T14:53:19;18.13;;;2.53;;
67191;SDS011;54120;53.504;49.426;2023-04-03T14:55:50;30.73;;;3.05;;
67191;SDS011;54120;53.504;49.426;2023-04-03T14:58:19;33.33;;;4.38;;
67191;SDS011;54120;53.504;49.426;2023-04-03T15:00:46;21.75;;;2.60;;
67191;SDS011;54120;53.504;49.426;2023-04-03T15:03:14;25.15;;;4.10;;
67191;SDS011;54120;53.504;49.426;2023-04-03T15:05:43;31.02;;;3.13;;
67191;SDS011;54120;53.504;49.426;2023-04-03T15:08:17;22.42;;;3.13;;
67191;SDS011;54120;53.504;49.426;2023-04-03T15:10:46;24.15;;;2.88;;
67191;SDS011;54120;53.504;49.426;2023-04-03T15:13:13;27.48;;;3.67;;
67191;SDS011;54120;53.504;49.426;2023-04-03T15:15:40;18.90;;;3.10;;
67191;SDS011;54120;53.504;49.426;2023-04-03T15:18:09;21.38;;;3.00;;
67191;SDS011;54120;53.504;49.426;2023-04-03T15:20:39;30.23;;;3.47;;
67191;SDS011;54120;53.504;49.426;2023-04-03T15:23:06;17.55;;;3.15;;
67191;SDS011;54120;53.504;49.426;2023-04-03T15:25:33;25.80;;;3.60;;
67191;SDS011;54120;53.504;49.426;2023-04-03T15:27:59;21.25;;;3.30;;
67191;SDS011;54120;53.504;49.426;2023-04-03T15:30:26;18.30;;;3.78;;
67191;SDS011;54120;53.504;49.426;2023-04-03T15:32:53;15.68;;;2.92;;
67191;SDS011;54120;53.504;49.426;2023-04-03T15:35:19;32.05;;;4.30;;
67191;SDS011;54120;53.504;49.426;2023-04-03T15:37:45;28.83;;;3.22;;
67191;SDS011;54120;53.504;49.426;2023-04-03T15:40:13;24.05;;;2.83;;
67191;SDS011;54120;53.504;49.426;2023-04-03T15:42:40;29.92;;;3.58;;
67191;SDS011;54120;53.504;49.426;2023-04-03T15:45:07;25.13;;;4.28;;
67191;SDS011;54120;53.504;49.426;2023-04-03T15:47:34;24.27;;;3.83;;
67191;SDS011;54120;53.504;49.426;2023-04-03T15:50:00;32.13;;;4.00;;
67191;SDS011;54120;53.504;49.426;2023-04-03T15:52:27;28.73;;;4.38;;
67191;SDS011;54120;53.504;49.426;2023-04-03T15:54:55;31.15;;;4.03;;
67191;SDS011;54120;53.504;49.426;2023-04-03T15:57:21;19.63;;;5.07;;
67191;SDS011;54120;53.504;49.426;2023-04-03T15:59:51;35.95;;;5.13;;
67191;SDS011;54120;53.504;49.426;2023-04-03T16:02:18;24.77;;;4.55;;
67191;SDS011;54120;53.504;49.426;2023-04-03T16:04:45;30.30;;;5.30;;
67191;SDS011;54120;53.504;49.426;2023-04-03T16:07:12;33.03;;;6.13;;
67191;SDS011;54120;53.504;49.426;2023-04-03T16:09:38;31.13;;;5.57;;
67191;SDS011;54120;53.504;49.426;2023-04-03T16:12:05;40.22;;;5.60;;
67191;SDS011;54120;53.504;49.426;2023-04-03T16:14:31;35.92;;;5.75;;
67191;SDS011;54120;53.504;49.426;2023-04-03T16:16:58;26.13;;;5.65;;
67191;SDS011;54120;53.504;49.426;2023-04-03T16:19:25;28.13;;;5.65;;
67191;SDS011;54120;53.504;49.426;2023-04-03T16:21:52;41.95;;;5.53;;
67191;SDS011;54120;53.504;49.426;2023-04-03T16:24:22;25.85;;;5.47;;
67191;SDS011;54120;53.504;49.426;2023-04-03T16:26:49;28.63;;;5.15;;
67191;SDS011;54120;53.504;49.426;2023-04-03T16:29:15;21.90;;;5.05;;
67191;SDS011;54120;53.504;49.426;2023-04-03T16:31:41;34.83;;;5.93;;
67191;SDS011;54120;53.504;49.426;2023-04-03T16:34:08;31.73;;;5.28;;
67191;SDS011;54120;53.504;49.426;2023-04-03T16:36:35;38.28;;;5.70;;
67191;SDS011;54120;53.504;49.426;2023-04-03T16:39:03;37.63;;;5.28;;
67191;SDS011;54120;53.504;49.426;2023-04-03T16:41:29;40.58;;;5.40;;
67191;SDS011;54120;53.504;49.426;2023-04-03T16:43:56;22.23;;;5.15;;
67191;SDS011;54120;53.504;49.426;2023-04-03T16:46:23;26.98;;;4.93;;
67191;SDS011;54120;53.504;49.426;2023-04-03T16:48:51;32.78;;;5.65;;
67191;SDS011;54120;53.504;49.426;2023-04-03T16:51:17;30.55;;;4.75;;
67191;SDS011;54120;53.504;49.426;2023-04-03T16:53:43;30.70;;;5.60;;